Latest Weather Observations for Redcliffe

IDQ60901

Issued at 7:01 am EST Tuesday 24 January 2017 (issued every 10 minutes, with the page automatically refreshed every 10 minutes)

About weather observations | Map of Brisbane area stations | Latest observations for Brisbane area | Other Formats
Station Details ID: 040958 Name: REDCLIFFE Lat: -27.22 Lon: 153.09 Height: 12.6 m
Data from the previous 72 hours. | See also: Recent months at Redcliffe
Date/Time
EST
Temp
°C
App
Temp
°C
Dew
Point
°C
Rel
Hum
%
Delta-T
°C
Wind Press
QNH
hPa
Press
MSL
hPa
Rain since
9am
mm
Dir  Spd
km/h
Gust
km/h
Spd
kts
Gust
kts
24/06:30am 22.9 23.0 15.5 63 4.4 S 9 13 5 7 1016.7 1016.6 0.0
24/06:00am 21.4 21.3 15.9 71 3.3 W 11 13 6 7 1016.4 1016.3 0.0
24/05:30am 19.9 19.7 15.7 77 2.5 W 11 13 6 7 1016.2 1016.1 0.0
24/05:00am 20.0 19.8 15.8 77 2.5 W 11 13 6 7 1015.9 1015.8 0.0
24/04:30am 20.3 19.7 15.7 75 2.7 WNW 13 15 7 8 1015.6 1015.5 0.0
24/04:00am 20.8 20.6 15.8 73 3.0 WNW 11 13 6 7 1015.5 1015.4 0.0
24/03:30am 21.2 21.1 16.0 72 3.1 W 11 13 6 7 1015.4 1015.3 0.0
24/03:00am 21.2 21.6 16.4 74 2.9 W 9 13 5 7 1015.4 1015.3 0.0
24/02:30am 20.7 20.6 15.9 74 2.9 WSW 11 13 6 7 1015.5 1015.4 0.0
24/02:00am 21.3 21.1 15.8 71 3.3 W 11 13 6 7 1015.4 1015.3 0.0
24/01:30am 21.4 21.1 15.5 69 3.5 WSW 11 11 6 6 1015.5 1015.4 0.0
24/01:00am 22.2 22.2 15.3 65 4.1 W 9 11 5 6 1015.6 1015.5 0.0
24/12:30am 22.7 21.9 15.0 61 4.6 N 13 24 7 13 1015.7 1015.6 0.0
24/12:00am 24.3 22.5 15.5 58 5.3 NNE 19 24 10 13 1016.0 1015.9 0.0
 
Date/Time
EST
Temp
°C
App
Temp
°C
Dew
Point
°C
Rel
Hum
%
Delta-T
°C
Wind Press
QNH
hPa
Press
MSL
hPa
Rain since
9am
mm
Dir  Spd
km/h
Gust
km/h
Spd
kts
Gust
kts
23/11:30pm 24.8 24.6 15.7 57 5.5 N 11 19 6 10 1016.2 1016.1 0.0
23/11:00pm 24.9 23.8 15.2 54 5.8 NE 15 20 8 11 1016.5 1016.4 0.0
23/10:30pm 24.9 23.2 14.7 53 6.1 NNE 17 20 9 11 1016.8 1016.7 0.0
23/10:00pm 25.1 23.4 14.6 52 6.3 NE 17 26 9 14 1017.0 1016.9 0.0
23/09:30pm 25.2 24.1 15.2 54 6.0 NE 15 22 8 12 1017.0 1016.9 0.0
23/09:00pm 24.9 23.6 14.7 53 6.1 NE 15 19 8 10 1016.9 1016.8 0.0
23/08:30pm 25.2 23.8 14.6 51 6.3 ENE 15 20 8 11 1016.8 1016.7 0.0
23/08:00pm 25.3 23.1 15.0 53 6.2 ENE 20 26 11 14 1016.5 1016.4 0.0
23/07:30pm 25.4 23.4 15.4 54 6.0 ENE 20 24 11 13 1016.3 1016.2 0.0
23/07:00pm 25.6 23.8 15.6 54 6.1 ENE 19 22 10 12 1016.0 1015.9 0.0
23/06:30pm 25.9 24.0 15.3 52 6.4 E 19 22 10 12 1015.6 1015.5 0.0
23/06:00pm 26.2 24.2 15.6 52 6.4 ENE 20 26 11 14 1015.2 1015.1 0.0
23/05:30pm 26.7 24.9 15.4 50 6.9 ENE 19 24 10 13 1014.9 1014.8 0.0
23/05:00pm 26.6 25.1 15.3 50 6.9 ENE 17 24 9 13 1014.5 1014.4 0.0
23/04:30pm 26.7 25.5 16.0 52 6.6 E 17 20 9 11 1014.5 1014.4 0.0
23/04:00pm 26.7 25.5 16.0 52 6.6 E 17 24 9 13 1014.4 1014.3 0.0
23/03:30pm 27.4 25.4 15.4 48 7.3 ESE 20 24 11 13 1014.5 1014.4 0.0
23/03:00pm 27.7 26.1 15.0 45 7.7 ESE 17 22 9 12 1014.6 1014.5 0.0
23/02:30pm 27.5 25.4 14.8 45 7.7 ESE 19 22 10 12 1014.8 1014.7 0.0
23/02:00pm 27.8 25.4 14.4 43 8.0 E 20 28 11 15 1015.0 1014.9 0.0
23/01:30pm 27.3 25.4 12.9 41 8.4 E 15 20 8 11 1015.3 1015.2 0.0
23/01:00pm 28.0 26.3 13.5 41 8.6 E 15 19 8 10 1015.6 1015.5 0.0
23/12:30pm 28.1 26.2 14.3 42 8.3 E 17 20 9 11 1015.9 1015.8 0.0
23/12:00pm 28.6 26.9 13.7 40 8.9 ESE 15 20 8 11 1016.1 1016.0 0.0
23/11:30am 27.4 25.4 12.6 40 8.6 ESE 15 17 8 9 1016.4 1016.3 0.0
23/11:00am 27.4 25.5 14.1 44 7.9 ESE 17 20 9 11 1016.7 1016.6 0.0
23/10:30am 28.5 27.2 13.6 40 8.9 ESE 13 17 7 9 1016.9 1016.8 0.0
23/10:00am 27.8 26.3 13.0 40 8.7 ESE 13 17 7 9 1017.1 1017.0 0.0
23/09:30am 28.3 26.9 13.4 40 8.8 ESE 13 19 7 10 1017.2 1017.1 0.0
23/09:00am 26.3 24.3 11.6 40 8.4 ESE 13 19 7 10 1017.1 1017.0 0.0
23/08:30am 25.9 22.6 12.7 44 7.7 E 22 30 12 16 1016.7 1016.6 0.0
23/08:00am 25.6 22.9 12.8 45 7.4 ESE 19 26 10 14 1016.7 1016.6 0.0
23/07:30am 25.2 21.7 13.4 48 6.9 ESE 24 30 13 16 1016.6 1016.5 0.0
23/07:00am 24.9 21.9 12.5 46 7.1 SE 20 28 11 15 1016.7 1016.6 0.0
23/06:30am 24.8 20.1 12.1 45 7.3 SE 28 32 15 17 1016.4 1016.3 0.0
23/06:00am 24.7 19.8 12.6 47 7.0 ESE 30 35 16 19 1015.7 1015.6 0.0
23/05:30am 24.5 20.3 13.4 50 6.5 SE 28 35 15 19 1015.3 1015.2 0.0
23/05:00am 24.4 22.0 12.7 48 6.7 SE 17 26 9 14 1015.2 1015.1 0.0
23/04:30am 24.0 21.1 12.3 48 6.7 SE 19 28 10 15 1015.1 1015.0 0.0
23/04:00am 24.4 21.2 12.0 46 7.1 SE 20 30 11 16 1014.9 1014.8 0.0
23/03:30am 24.5 20.4 12.8 48 6.8 E 26 32 14 17 1014.7 1014.6 0.0
23/03:00am 24.3 21.8 13.5 51 6.3 ESE 19 30 10 16 1014.7 1014.6 0.0
23/02:30am 24.3 21.4 12.9 49 6.6 ESE 20 28 11 15 1014.7 1014.6 0.0
23/02:00am 24.2 20.2 13.1 50 6.4 ESE 26 33 14 18 1014.9 1014.8 0.0
23/01:30am 24.2 21.5 14.6 55 5.7 ESE 22 30 12 16 1015.1 1015.0 0.0
23/01:00am 24.2 20.8 13.7 52 6.1 SE 24 32 13 17 1015.4 1015.3 0.0
23/12:30am 24.3 20.3 14.1 53 6.0 SE 28 35 15 19 1015.7 1015.6 0.0
23/12:00am 24.4 20.6 14.8 55 5.7 ESE 28 33 15 18 1015.8 1015.7 0.0
 
Date/Time
EST
Temp
°C
App
Temp
°C
Dew
Point
°C
Rel
Hum
%
Delta-T
°C
Wind Press
QNH
hPa
Press
MSL
hPa
Rain since
9am
mm
Dir  Spd
km/h
Gust
km/h
Spd
kts
Gust
kts
22/11:30pm 24.5 20.8 14.9 55 5.7 ESE 28 35 15 19 1015.8 1015.7 0.0
22/11:00pm 24.7 21.2 15.6 57 5.5 ESE 28 33 15 18 1016.1 1016.0 0.0
22/10:30pm 24.8 21.5 16.0 58 5.4 SE 28 33 15 18 1016.2 1016.1 0.0
22/10:00pm 24.8 21.6 16.2 58 5.2 ESE 28 35 15 19 1016.4 1016.3 0.0
22/09:30pm 24.9 21.6 16.1 58 5.4 ESE 28 33 15 18 1016.5 1016.4 0.0
22/09:00pm 24.9 21.6 16.1 58 5.4 SE 28 33 15 18 1016.3 1016.2 0.0
22/08:30pm 24.9 21.9 15.8 57 5.5 SE 26 32 14 17 1016.2 1016.1 0.0
22/08:00pm 25.1 21.9 15.4 55 5.9 ESE 26 33 14 18 1016.2 1016.1 0.0
22/07:30pm 25.2 22.2 15.8 56 5.7 ESE 26 32 14 17 1016.0 1015.9 0.0
22/07:00pm 25.1 21.8 16.0 57 5.5 ESE 28 33 15 18 1015.7 1015.6 0.0
22/06:30pm 25.3 22.5 16.4 57 5.5 ESE 26 35 14 19 1015.5 1015.4 0.0
22/06:00pm 25.5 22.5 15.8 55 5.9 ESE 26 33 14 18 1015.2 1015.1 0.0
22/05:30pm 25.8 22.5 16.1 55 5.9 ESE 28 35 15 19 1014.8 1014.7 0.0
22/05:00pm 25.6 22.1 15.6 54 6.1 ESE 28 35 15 19 1014.5 1014.4 0.0
22/04:30pm 26.1 23.0 15.5 52 6.4 ESE 26 32 14 17 1014.4 1014.3 0.0
22/04:00pm 26.8 23.3 15.5 50 6.9 ESE 28 33 15 18 1014.4 1014.3 0.0
22/03:30pm 26.6 23.3 15.0 49 7.0 ESE 26 33 14 18 1014.5 1014.4 0.0
22/03:00pm 26.3 22.5 14.7 48 7.0 SE 28 32 15 17 1014.8 1014.7 0.0
22/02:30pm 26.5 22.9 15.2 49 6.8 SE 28 33 15 18 1015.0 1014.9 0.0
22/02:00pm 26.7 23.4 16.0 52 6.6 SE 28 35 15 19 1015.1 1015.0 0.0
22/01:30pm 26.3 22.9 15.7 52 6.5 SE 28 32 15 17 1015.2 1015.1 0.0
22/01:00pm 27.3 24.6 16.6 52 6.6 SE 26 33 14 18 1015.4 1015.3 0.0
22/12:30pm 26.3 23.9 16.5 54 6.1 SE 24 33 13 18 1015.8 1015.7 0.0
22/12:00pm 26.6 22.7 16.5 54 6.2 SE 32 37 17 20 1015.8 1015.7 0.0
22/11:30am 26.9 24.0 17.1 55 6.1 SE 28 35 15 19 1016.0 1015.9 0.0
22/11:00am 26.9 24.1 17.4 56 6.0 SSE 28 33 15 18 1016.2 1016.1 0.0
22/10:30am 26.5 22.2 17.0 56 5.9 SSE 35 41 19 22 1016.2 1016.1 0.0
22/10:00am 26.9 23.3 17.7 57 5.8 SSE 33 39 18 21 1016.3 1016.2 0.0
22/09:30am 26.2 22.2 17.6 59 5.4 SSE 35 41 19 22 1016.2 1016.1 0.0
22/09:00am 26.0 22.5 17.9 61 5.1 SSE 33 41 18 22 1016.1 1016.0 0.4
22/08:30am 25.3 21.9 17.7 62 4.8 SSE 32 35 17 19 1016.0 1015.9 0.4
22/08:00am 24.9 22.1 18.1 66 4.3 S 30 39 16 21 1015.8 1015.7 0.4
22/07:30am 24.7 23.3 17.9 66 4.3 S 22 30 12 16 1015.6 1015.5 0.4
22/07:00am 25.2 23.9 18.2 65 4.4 S 22 26 12 14 1015.5 1015.4 0.4
22/06:30am 24.0 22.5 18.6 72 3.4 S 24 30 13 16 1015.4 1015.3 0.4
22/06:00am 23.6 22.9 18.7 74 3.1 S 20 30 11 16 1015.1 1015.0 0.4
22/05:30am 23.4 21.3 18.9 76 2.9 S 28 33 15 18 1014.5 1014.4 0.4
22/05:00am 23.1 20.9 18.8 77 2.7 S 28 33 15 18 1014.0 1013.9 0.4
22/04:30am 23.2 20.5 19.2 78 2.5 S 32 35 17 19 1013.5 1013.4 0.4
22/04:00am 22.9 20.0 19.3 80 2.3 S 33 41 18 22 1013.2 1013.1 0.4
22/03:30am 23.3 20.0 19.2 78 2.6 S 35 46 19 25 1013.0 1012.9 0.4
22/03:00am 23.5 20.7 19.4 78 2.6 S 33 41 18 22 1013.0 1012.9 0.4
22/02:30am 23.2 21.8 19.6 80 2.3 S 26 32 14 17 1012.8 1012.7 0.4
22/02:00am 23.0 20.8 19.6 81 2.2 SSE 30 39 16 21 1012.9 1012.8 0.4
22/01:30am 23.7 22.3 19.6 78 2.6 S 26 30 14 16 1012.8 1012.7 0.4
22/01:00am 23.8 22.0 19.5 77 2.8 S 28 32 15 17 1013.1 1013.0 0.4
22/12:30am 24.1 21.4 19.6 76 2.9 S 33 39 18 21 1013.2 1013.1 0.4
22/12:00am 24.2 22.1 19.7 76 2.9 S 30 33 16 18 1013.3 1013.2 0.4
 
Date/Time
EST
Temp
°C
App
Temp
°C
Dew
Point
°C
Rel
Hum
%
Delta-T
°C
Wind Press
QNH
hPa
Press
MSL
hPa
Rain since
9am
mm
Dir  Spd
km/h
Gust
km/h
Spd
kts
Gust
kts
21/11:30pm 24.0 21.9 19.7 77 2.8 S 30 35 16 19 1013.4 1013.3 0.4
21/11:00pm 24.6 22.2 19.9 75 3.0 SSE 32 43 17 23 1013.5 1013.4 0.4
21/10:30pm 24.7 21.7 19.8 74 3.2 SSE 35 46 19 25 1013.8 1013.7 0.4
21/10:00pm 25.1 20.4 19.5 71 3.6 SSE 43 50 23 27 1013.4 1013.3 0.4
21/09:30pm 25.5 21.2 19.6 70 3.8 SE 41 48 22 26 1013.2 1013.1 0.4
21/09:00pm 25.4 22.5 20.0 72 3.5 SE 35 43 19 23 1013.0 1012.9 0.4
21/08:30pm 25.8 22.1 19.9 70 3.8 SE 39 54 21 29 1012.4 1012.3 0.4
21/08:00pm 25.5 21.5 20.1 72 3.5 SE 41 50 22 27 1012.1 1012.0 0.4
21/07:30pm 25.1 21.6 20.4 75 3.1 SE 39 48 21 26 1011.7 1011.6 0.4
21/07:00pm 24.9 22.5 21.0 79 2.6 SE 35 46 19 25 1011.2 1011.1 0.4
21/06:30pm 24.6 21.6 20.7 79 2.6 SE 37 44 20 24 1010.7 1010.6 0.4
21/06:00pm 25.3 21.6 20.8 76 3.0 SE 41 50 22 27 1010.1 1010.0 0.4
21/05:30pm 24.9 22.3 21.4 81 2.3 ESE 37 48 20 26 1009.2 1009.1 0.4
21/05:00pm 25.3 22.7 21.4 79 2.6 SE 37 44 20 24 1009.0 1008.9 0.4
21/04:30pm 25.3 22.0 21.6 80 2.5 SE 41 50 22 27 1008.7 1008.6 0.4
21/04:00pm 25.3 22.2 22.0 82 2.2 SE 41 48 22 26 1007.7 1007.6 0.4
21/03:30pm 25.2 21.4 21.7 81 2.3 SE 44 52 24 28 1007.8 1007.7 0.0
21/03:00pm 25.5 22.0 21.8 80 2.5 SSE 43 54 23 29 1007.8 1007.7 0.0
21/02:30pm 26.5 22.2 21.5 74 3.3 SE 46 54 25 29 1007.7 1007.6 0.0
21/02:00pm 27.9 24.0 21.4 67 4.3 SE 44 52 24 28 1007.0 1006.9 0.0
21/01:30pm 28.4 24.7 21.9 68 4.4 SE 44 52 24 28 1006.7 1006.6 0.0
21/01:00pm 28.5 26.5 23.2 73 3.6 ESE 39 48 21 26 1006.9 1006.8 0.0
21/12:30pm 28.5 27.5 23.6 75 3.4 SE 35 41 19 22 1006.9 1006.8 0.0
21/12:00pm 30.5 31.3 22.4 62 5.5 E 22 30 12 16 1006.5 1006.4 0.0
21/11:30am 34.7 36.4 21.7 46 8.9 SE 15 17 8 9 1006.5 1006.4 0.0
21/11:00am 34.0 35.6 21.4 47 8.6 SSW 15 22 8 12 1006.8 1006.7 0.0
21/10:30am 33.1 35.4 21.3 50 8.0 SW 11 17 6 9 1007.0 1006.9 0.0
21/10:00am 33.0 35.5 21.8 51 7.6 SW 11 15 6 8 1006.9 1006.8 0.0
21/09:30am 32.1 34.9 21.6 53 7.1 W 9 17 5 9 1006.8 1006.7 0.0
21/09:00am 31.0 34.2 22.3 60 5.9 WNW 9 13 5 7 1006.6 1006.5 0.0
21/08:30am 30.3 33.2 22.5 63 5.3 WNW 11 15 6 8 1006.5 1006.4 0.0
21/08:00am 29.9 32.3 21.6 61 5.6 NW 11 15 6 8 1006.3 1006.2 0.0
21/07:30am 29.8 32.8 22.0 63 5.3 WNW 9 11 5 6 1006.2 1006.1 0.0

Latest Capital City Observations: Canberra | Sydney | Melbourne | Brisbane | Adelaide | Perth | Hobart | Darwin

Other Formats:

Comma delimited format used in spreadsheet applications
http://www.bom.gov.au/fwo/IDQ60901/IDQ60901.95591.axf

JavaScript Object Notation format (JSON) in row-major order
http://www.bom.gov.au/fwo/IDQ60901/IDQ60901.95591.json